Terminal Aerodrome Forecast
Issued by NWS Charleston, WV

Current Version | Previous Version | Graphics & Text | Print | Product List | Glossary On
Versions: 1 2 3 4 5 6 7 8 9 10 11 12 13 14 15 16 17 18 19 20 21
200
FTUS41 KRLX 212334
TAFEKN
TAF
KEKN 212334Z 2200/2224 25004KT P6SM BKN045
     FM220300 28009G17KT P6SM -SHRA BKN045
     FM220600 29011G22KT P6SM BKN025
     FM221300 33010G16KT P6SM FEW080=

USA.gov is the U.S. government's official web portal to all federal, state and local government web resources and services.